createdAt,value
2023-02-26T00:00:00.578Z,48706.84
2023-02-26T00:02:27.097Z,48734.28
2023-02-26T00:04:53.531Z,48755.84
2023-02-26T00:07:20.281Z,48724.50
2023-02-26T00:09:46.657Z,48706.84
2023-02-26T00:12:13.696Z,48720.56
2023-02-26T00:14:40.368Z,48716.66
2023-02-26T00:17:36.378Z,48702.94
2023-02-26T00:20:04.913Z,48757.78
2023-02-26T00:22:31.693Z,48718.59
2023-02-26T00:24:58.159Z,48706.84
2023-02-26T00:27:24.553Z,48699.03
2023-02-26T00:29:51.350Z,48687.28
2023-02-26T00:32:18.433Z,48738.19
2023-02-26T00:34:46.779Z,48714.69
2023-02-26T00:37:48.984Z,48730.38
2023-02-26T00:40:28.168Z,48738.19
2023-02-26T00:42:54.920Z,48722.53
2023-02-26T00:45:21.911Z,48734.28
2023-02-26T00:48:13.499Z,48718.59
2023-02-26T00:50:53.737Z,48746.03
2023-02-26T00:54:02.222Z,48706.84
2023-02-26T00:56:28.670Z,48746.03
2023-02-26T00:58:55.117Z,48746.03
2023-02-26T01:01:21.580Z,48736.25
2023-02-26T01:03:48.384Z,48734.28
2023-02-26T01:06:19.065Z,48734.28
2023-02-26T01:08:57.091Z,48736.25
2023-02-26T01:11:23.716Z,48726.44
2023-02-26T01:13:50.398Z,48702.94
2023-02-26T01:16:21.666Z,48722.53
2023-02-26T01:18:53.810Z,48718.59
2023-02-26T01:21:29.174Z,48726.44
2023-02-26T01:23:55.645Z,48714.69
2023-02-26T01:26:28.331Z,48753.88
2023-02-26T01:28:55.625Z,48726.44
2023-02-26T01:31:40.622Z,48720.56
2023-02-26T01:34:14.806Z,48722.53
2023-02-26T01:36:49.755Z,48724.50
2023-02-26T01:39:25.755Z,48738.19
2023-02-26T01:41:59.093Z,48757.78
2023-02-26T01:44:48.281Z,48699.03
2023-02-26T01:47:27.806Z,48702.94
2023-02-26T01:49:54.811Z,48734.28
2023-02-26T01:52:49.074Z,48714.69
2023-02-26T01:55:33.662Z,48722.53
2023-02-26T01:58:02.471Z,48697.06
2023-02-26T02:00:31.275Z,48730.38
2023-02-26T02:02:57.919Z,48722.53
2023-02-26T02:05:57.309Z,48710.78
2023-02-26T02:08:24.349Z,48716.66
2023-02-26T02:10:52.377Z,48730.38
2023-02-26T02:13:40.938Z,48720.56
2023-02-26T02:16:29.340Z,48710.78
2023-02-26T02:19:17.114Z,48718.59
2023-02-26T02:21:54.223Z,48695.09
2023-02-26T02:24:55.017Z,48710.78
2023-02-26T02:27:30.660Z,48714.69
2023-02-26T02:30:39.748Z,48699.03
2023-02-26T02:33:15.010Z,48699.03
2023-02-26T02:35:58.120Z,48702.94
2023-02-26T02:38:34.780Z,48687.28
2023-02-26T02:41:13.476Z,48685.31
2023-02-26T02:43:43.509Z,48683.34
2023-02-26T02:46:16.264Z,48671.59
2023-02-26T02:48:48.960Z,48702.94
2023-02-26T02:51:42.830Z,48689.22
2023-02-26T02:54:18.108Z,48691.19
2023-02-26T02:56:51.647Z,48675.50
2023-02-26T02:59:28.709Z,48695.09
2023-02-26T03:02:11.796Z,48687.28
2023-02-26T03:04:40.462Z,48685.31
2023-02-26T03:07:07.092Z,48687.28
2023-02-26T03:09:34.061Z,48687.28
2023-02-26T03:12:00.457Z,48702.94
2023-02-26T03:14:27.937Z,48689.22
2023-02-26T03:17:27.367Z,48687.28
2023-02-26T03:20:06.911Z,48673.56
2023-02-26T03:22:52.642Z,48718.59
2023-02-26T03:25:26.396Z,48681.41
2023-02-26T03:28:06.120Z,48716.66
2023-02-26T03:30:41.702Z,48681.41
2023-02-26T03:33:17.915Z,48697.06
2023-02-26T03:35:53.504Z,48702.94
2023-02-26T03:38:25.784Z,48679.44
2023-02-26T03:40:59.567Z,48702.94
2023-02-26T03:43:39.540Z,48667.69
2023-02-26T03:46:09.590Z,48699.03
2023-02-26T03:48:36.853Z,48675.50
2023-02-26T03:51:10.504Z,48691.19
2023-02-26T03:53:47.232Z,48695.09
2023-02-26T03:56:19.664Z,48683.34
2023-02-26T03:58:46.139Z,48687.28
2023-02-26T04:01:20.642Z,48669.63
2023-02-26T04:04:19.501Z,48685.31
2023-02-26T04:06:47.724Z,48687.28
2023-02-26T04:09:16.062Z,48700.97
2023-02-26T04:11:44.129Z,48691.19
2023-02-26T04:14:10.718Z,48671.59
2023-02-26T04:16:37.318Z,48691.19
2023-02-26T04:19:03.770Z,48659.84
2023-02-26T04:21:30.646Z,48699.03
2023-02-26T04:23:57.038Z,48691.19
2023-02-26T04:26:23.655Z,48691.19
2023-02-26T04:28:50.207Z,48718.59
2023-02-26T04:31:17.184Z,48683.34
2023-02-26T04:33:44.028Z,48706.84
2023-02-26T04:36:10.633Z,48685.31
2023-02-26T04:38:37.102Z,48702.94
2023-02-26T04:41:03.559Z,48716.66
2023-02-26T04:43:30.097Z,48697.06
2023-02-26T04:45:56.875Z,48724.50
2023-02-26T04:48:23.359Z,48691.19
2023-02-26T04:50:50.185Z,48702.94
2023-02-26T04:53:16.636Z,48685.31
2023-02-26T04:55:43.182Z,48706.84
2023-02-26T04:58:09.829Z,48702.94
2023-02-26T05:00:36.481Z,48693.16
2023-02-26T05:03:02.869Z,48671.59
2023-02-26T05:05:29.271Z,48699.03
2023-02-26T05:07:56.775Z,48695.09
2023-02-26T05:10:24.120Z,48700.97
2023-02-26T05:12:51.247Z,48695.09
2023-02-26T05:15:17.717Z,48710.78
2023-02-26T05:17:44.479Z,48710.78
2023-02-26T05:20:11.502Z,48716.66
2023-02-26T05:22:38.866Z,48702.94
2023-02-26T05:25:06.214Z,48730.38
2023-02-26T05:27:33.292Z,48726.44
2023-02-26T05:29:59.785Z,48699.03
2023-02-26T05:32:27.326Z,48730.38
2023-02-26T05:34:53.828Z,48720.56
2023-02-26T05:37:20.607Z,48738.19
2023-02-26T05:39:47.045Z,48718.59
2023-02-26T05:42:13.471Z,48716.66
2023-02-26T05:44:39.857Z,48710.78
2023-02-26T05:47:06.998Z,48699.03
2023-02-26T05:49:33.383Z,48722.53
2023-02-26T05:51:59.850Z,48706.84
2023-02-26T05:54:26.376Z,48734.28
2023-02-26T05:56:53.268Z,48710.78
2023-02-26T05:59:20.542Z,48691.19
2023-02-26T06:01:47.467Z,48726.44
2023-02-26T06:04:13.865Z,48728.41
2023-02-26T06:06:40.405Z,48716.66
2023-02-26T06:09:07.215Z,48710.78
2023-02-26T06:11:34.171Z,48706.84
2023-02-26T06:14:00.995Z,48718.59
2023-02-26T06:16:27.943Z,48710.78
2023-02-26T06:18:54.543Z,48695.09
2023-02-26T06:21:20.940Z,48722.53
2023-02-26T06:23:47.598Z,48730.38
2023-02-26T06:26:14.252Z,48726.44
2023-02-26T06:28:40.778Z,48720.56
2023-02-26T06:31:07.169Z,48714.69
2023-02-26T06:33:33.557Z,48730.38
2023-02-26T06:36:00.601Z,48722.53
2023-02-26T06:38:28.656Z,48706.84
2023-02-26T06:40:55.225Z,48734.28
2023-02-26T06:43:21.924Z,48706.84
2023-02-26T06:45:48.409Z,48726.44
2023-02-26T06:48:15.119Z,48724.50
2023-02-26T06:50:41.495Z,48710.78
2023-02-26T06:53:08.098Z,48714.69
2023-02-26T06:55:34.598Z,48702.94
2023-02-26T06:58:01.426Z,48722.53
2023-02-26T07:00:27.817Z,48702.94
2023-02-26T07:02:54.374Z,48710.78
2023-02-26T07:05:21.185Z,48738.19
2023-02-26T07:07:47.979Z,48702.94
2023-02-26T07:10:14.494Z,48740.16
2023-02-26T07:12:40.878Z,48730.38
2023-02-26T07:15:07.995Z,48714.69
2023-02-26T07:17:34.481Z,48704.91
2023-02-26T07:20:06.194Z,48714.69
2023-02-26T07:22:33.387Z,48693.16
2023-02-26T07:25:00.791Z,48738.19
2023-02-26T07:27:27.331Z,48712.72
2023-02-26T07:29:53.853Z,48728.41
2023-02-26T07:32:20.507Z,48720.56
2023-02-26T07:34:46.978Z,48714.69
2023-02-26T07:37:13.882Z,48702.94
2023-02-26T07:39:40.402Z,48732.31
2023-02-26T07:42:06.803Z,48710.78
2023-02-26T07:44:33.199Z,48695.09
2023-02-26T07:46:59.990Z,48714.69
2023-02-26T07:49:26.401Z,48710.78
2023-02-26T07:51:52.991Z,48734.28
2023-02-26T07:54:19.633Z,48718.59
2023-02-26T07:56:46.046Z,48702.94
2023-02-26T07:59:12.518Z,48722.53
2023-02-26T08:01:38.955Z,48695.09
2023-02-26T08:04:05.455Z,48726.44
2023-02-26T08:06:31.877Z,48720.56
2023-02-26T08:08:58.765Z,48720.56
2023-02-26T08:11:25.239Z,48706.84
2023-02-26T08:13:51.658Z,48726.44
2023-02-26T08:16:18.248Z,48724.50
2023-02-26T08:18:44.826Z,48695.09
2023-02-26T08:21:11.768Z,48714.69
2023-02-26T08:23:38.459Z,48691.19
2023-02-26T08:26:07.794Z,48706.84
2023-02-26T08:28:34.280Z,48718.59
2023-02-26T08:31:01.891Z,48722.53
2023-02-26T08:33:29.315Z,48712.72
2023-02-26T08:35:57.885Z,48706.84
2023-02-26T08:38:30.470Z,48702.94
2023-02-26T08:40:57.243Z,48702.94
2023-02-26T08:43:24.472Z,48714.69
2023-02-26T08:45:55.857Z,48718.59
2023-02-26T08:48:22.806Z,48742.13
2023-02-26T08:50:49.876Z,48714.69
2023-02-26T08:53:16.750Z,48702.94
2023-02-26T08:55:44.905Z,48697.06
2023-02-26T08:58:11.342Z,48699.03
2023-02-26T09:00:37.847Z,48706.84
2023-02-26T09:03:04.314Z,48710.78
2023-02-26T09:05:31.096Z,48702.94
2023-02-26T09:07:57.583Z,48706.84
2023-02-26T09:10:24.246Z,48714.69
2023-02-26T09:12:50.637Z,48710.78
2023-02-26T09:15:17.991Z,48699.03
2023-02-26T09:17:44.359Z,48699.03
2023-02-26T09:20:11.968Z,48702.94
2023-02-26T09:22:38.436Z,48710.78
2023-02-26T09:25:06.007Z,48710.78
2023-02-26T09:27:33.417Z,48687.28
2023-02-26T09:29:59.890Z,48732.31
2023-02-26T09:32:26.889Z,48714.69
2023-02-26T09:34:53.544Z,48691.19
2023-02-26T09:37:20.120Z,48699.03
2023-02-26T09:39:46.785Z,48706.84
2023-02-26T09:42:34.923Z,48693.16
2023-02-26T09:45:02.376Z,48706.84
2023-02-26T09:47:43.138Z,48675.50
2023-02-26T09:50:19.018Z,48691.19
2023-02-26T09:53:02.692Z,48710.78
2023-02-26T09:55:39.988Z,48702.94
2023-02-26T09:58:18.253Z,48726.44
2023-02-26T10:01:10.489Z,48675.50
2023-02-26T10:04:15.885Z,48691.19
2023-02-26T10:06:56.741Z,48691.19
2023-02-26T10:09:37.429Z,48683.34
2023-02-26T10:12:20.930Z,48702.94
2023-02-26T10:15:02.246Z,48683.34
2023-02-26T10:17:57.838Z,48685.31
2023-02-26T10:20:32.292Z,48695.09
2023-02-26T10:23:04.482Z,48683.34
2023-02-26T10:25:58.458Z,48667.69
2023-02-26T10:28:38.426Z,48689.22
2023-02-26T10:31:19.987Z,48687.28
2023-02-26T10:34:07.415Z,48693.16
2023-02-26T10:37:03.716Z,48722.53
2023-02-26T10:39:35.324Z,48675.50
2023-02-26T10:42:09.681Z,48691.19
2023-02-26T10:44:43.126Z,48687.28
2023-02-26T10:47:19.163Z,48675.50
2023-02-26T10:50:01.504Z,48691.19
2023-02-26T10:52:31.501Z,48681.41
2023-02-26T10:55:13.396Z,48691.19
2023-02-26T10:57:47.915Z,48687.28
2023-02-26T11:00:20.642Z,48702.94
2023-02-26T11:02:51.971Z,48683.34
2023-02-26T11:05:22.387Z,48675.50
2023-02-26T11:07:54.610Z,48683.34
2023-02-26T11:10:25.187Z,48683.34
2023-02-26T11:12:52.879Z,48669.63
2023-02-26T11:15:27.050Z,48691.19
2023-02-26T11:17:56.410Z,48659.84
2023-02-26T11:20:42.364Z,48695.09
2023-02-26T11:23:14.926Z,48683.34
2023-02-26T11:25:41.766Z,48712.72
2023-02-26T11:28:29.940Z,48663.75
2023-02-26T11:30:57.379Z,48665.72
2023-02-26T11:33:34.176Z,48669.63
2023-02-26T11:36:05.893Z,48677.47
2023-02-26T11:38:33.712Z,48650.06
2023-02-26T11:41:01.111Z,48702.94
2023-02-26T11:43:36.898Z,48671.59
2023-02-26T11:46:05.739Z,48693.16
2023-02-26T11:48:46.187Z,48687.28
2023-02-26T11:51:20.218Z,48693.16
2023-02-26T11:54:01.537Z,48685.31
2023-02-26T11:56:34.044Z,48675.50
2023-02-26T11:59:22.093Z,48663.75
2023-02-26T12:01:49.666Z,48671.59
2023-02-26T12:04:20.967Z,48675.50
2023-02-26T12:06:55.981Z,48648.09
2023-02-26T12:09:24.916Z,48673.56
2023-02-26T12:12:15.977Z,48673.56
2023-02-26T12:15:01.358Z,48679.44
2023-02-26T12:17:54.334Z,48706.84
2023-02-26T12:20:24.397Z,48699.03
2023-02-26T12:23:14.013Z,48679.44
2023-02-26T12:25:46.368Z,48679.44
2023-02-26T12:28:34.767Z,48679.44
2023-02-26T12:31:15.766Z,48679.44
2023-02-26T12:33:51.172Z,48679.44
2023-02-26T12:36:28.310Z,48683.34
2023-02-26T12:39:19.858Z,48679.44
2023-02-26T12:42:17.705Z,48671.59
2023-02-26T12:44:59.255Z,48687.28
2023-02-26T12:47:47.600Z,48695.09
2023-02-26T12:50:19.914Z,48667.69
2023-02-26T12:53:06.434Z,48671.59
2023-02-26T12:55:49.095Z,48687.28
2023-02-26T12:58:31.752Z,48683.34
2023-02-26T13:01:12.987Z,48677.47
2023-02-26T13:03:59.377Z,48687.28
2023-02-26T13:06:44.644Z,48687.28
2023-02-26T13:09:23.694Z,48691.19
2023-02-26T13:12:21.419Z,48683.34
2023-02-26T13:14:59.793Z,48661.81
2023-02-26T13:17:56.454Z,48689.22
2023-02-26T13:20:27.852Z,48663.75
2023-02-26T13:23:05.147Z,48679.44
2023-02-26T13:25:39.765Z,48687.28
2023-02-26T13:28:21.813Z,48706.84
2023-02-26T13:30:52.928Z,48691.19
2023-02-26T13:33:32.209Z,48689.22
2023-02-26T13:36:00.447Z,48720.56
2023-02-26T13:39:04.740Z,48675.50
2023-02-26T13:41:57.674Z,48699.03
2023-02-26T13:44:40.688Z,48706.84
2023-02-26T13:47:17.742Z,48702.94
2023-02-26T13:50:05.875Z,48683.34
2023-02-26T13:52:35.647Z,48675.50
2023-02-26T13:55:04.497Z,48675.50
2023-02-26T13:57:52.165Z,48691.19
2023-02-26T14:00:31.633Z,48702.94
2023-02-26T14:03:12.864Z,48683.34
2023-02-26T14:05:48.175Z,48681.41
2023-02-26T14:08:17.957Z,48702.94
2023-02-26T14:10:55.467Z,48710.78
2023-02-26T14:13:24.507Z,48675.50
2023-02-26T14:16:14.298Z,48699.03
2023-02-26T14:18:43.479Z,48687.28
2023-02-26T14:21:28.657Z,48691.19
2023-02-26T14:24:38.785Z,48683.34
2023-02-26T14:27:11.222Z,48667.69
2023-02-26T14:29:39.645Z,48693.16
2023-02-26T14:32:14.835Z,48699.03
2023-02-26T14:35:10.575Z,48693.16
2023-02-26T14:37:39.864Z,48687.28
2023-02-26T14:40:17.978Z,48679.44
2023-02-26T14:42:50.236Z,48691.19
2023-02-26T14:45:16.579Z,48699.03
2023-02-26T14:47:45.324Z,48708.81
2023-02-26T14:50:16.157Z,48695.09
2023-02-26T14:52:47.799Z,48691.19
2023-02-26T14:55:42.911Z,48700.97
2023-02-26T14:58:44.190Z,48691.19
2023-02-26T15:01:28.418Z,48695.09
2023-02-26T15:04:13.400Z,48702.94
2023-02-26T15:06:58.581Z,48699.03
2023-02-26T15:09:58.501Z,48695.09
2023-02-26T15:13:19.421Z,48675.50
2023-02-26T15:16:10.425Z,48695.09
2023-02-26T15:18:54.257Z,48722.53
2023-02-26T15:21:30.447Z,49016.38
2023-02-26T15:23:59.513Z,49024.22
2023-02-26T15:26:30.372Z,49032.06
2023-02-26T15:28:58.420Z,49008.53
2023-02-26T15:31:35.771Z,49028.13
2023-02-26T15:34:03.725Z,49032.06
2023-02-26T15:36:31.531Z,49032.06
2023-02-26T15:39:00.612Z,49055.56
2023-02-26T15:41:31.412Z,49020.31
2023-02-26T15:44:04.961Z,48996.78
2023-02-26T15:46:37.240Z,49002.66
2023-02-26T15:49:15.860Z,49008.53
2023-02-26T15:51:45.025Z,48957.59
2023-02-26T15:54:18.529Z,48902.75
2023-02-26T15:56:46.460Z,48871.41
2023-02-26T15:59:19.550Z,48938.03
2023-02-26T16:01:47.940Z,48910.59
2023-02-26T16:04:18.270Z,48953.69
2023-02-26T16:06:48.374Z,48926.25
2023-02-26T16:09:19.795Z,48918.44
2023-02-26T16:11:47.606Z,48863.56
2023-02-26T16:14:22.517Z,48863.56
2023-02-26T16:16:52.456Z,48836.16
2023-02-26T16:19:23.620Z,48783.25
2023-02-26T16:21:52.566Z,48769.53
2023-02-26T16:24:23.043Z,48775.41
2023-02-26T16:26:56.188Z,48777.38
2023-02-26T16:29:29.294Z,48761.72
2023-02-26T16:31:58.881Z,48753.88
2023-02-26T16:34:37.164Z,48765.63
2023-02-26T16:37:26.006Z,48726.44
2023-02-26T16:40:19.998Z,48734.28
2023-02-26T16:42:54.959Z,48722.53
2023-02-26T16:45:36.702Z,48793.06
2023-02-26T16:48:24.038Z,48822.44
2023-02-26T16:51:07.645Z,48844.00
2023-02-26T16:53:37.844Z,48844.00
2023-02-26T16:56:05.696Z,48836.16
2023-02-26T16:58:35.207Z,48861.63
2023-02-26T17:01:09.272Z,48800.88
2023-02-26T17:03:38.389Z,48761.72
2023-02-26T17:06:14.812Z,48795.00
2023-02-26T17:08:46.275Z,48753.88
2023-02-26T17:11:25.520Z,48761.72
2023-02-26T17:14:20.933Z,48757.78
2023-02-26T17:16:49.111Z,48734.28
2023-02-26T17:19:16.278Z,48728.41
2023-02-26T17:21:45.742Z,48734.28
2023-02-26T17:24:17.093Z,48734.28
2023-02-26T17:26:44.554Z,48704.91
2023-02-26T17:29:19.173Z,48718.59
2023-02-26T17:31:46.016Z,48718.59
2023-02-26T17:34:12.554Z,48710.78
2023-02-26T17:36:39.038Z,48718.59
2023-02-26T17:39:05.742Z,48714.69
2023-02-26T17:41:34.362Z,48691.19
2023-02-26T17:44:00.802Z,48699.03
2023-02-26T17:46:27.182Z,48702.94
2023-02-26T17:48:53.552Z,48699.03
2023-02-26T17:51:19.936Z,48706.84
2023-02-26T17:53:46.672Z,48699.03
2023-02-26T17:56:25.914Z,48722.53
2023-02-26T17:58:55.145Z,48693.16
2023-02-26T18:01:23.489Z,48706.84
2023-02-26T18:03:50.850Z,48683.34
2023-02-26T18:06:17.533Z,48702.94
2023-02-26T18:08:44.700Z,48695.09
2023-02-26T18:11:12.778Z,48699.03
2023-02-26T18:13:39.431Z,48699.03
2023-02-26T18:16:06.937Z,48702.94
2023-02-26T18:18:33.413Z,48700.97
2023-02-26T18:21:00.931Z,48700.97
2023-02-26T18:23:27.440Z,48724.50
2023-02-26T18:25:54.983Z,48704.91
2023-02-26T18:28:27.085Z,48683.34
2023-02-26T18:30:54.764Z,48695.09
2023-02-26T18:33:22.103Z,48712.72
2023-02-26T18:35:53.300Z,48706.84
2023-02-26T18:38:23.214Z,48687.28
2023-02-26T18:40:50.337Z,48691.19
2023-02-26T18:43:16.863Z,48673.56
2023-02-26T18:45:45.727Z,48685.31
2023-02-26T18:48:15.945Z,48718.59
2023-02-26T18:50:44.009Z,48695.09
2023-02-26T18:53:10.572Z,48687.28
2023-02-26T18:55:37.408Z,48663.75
2023-02-26T18:58:04.600Z,48689.22
2023-02-26T19:00:31.597Z,48697.06
2023-02-26T19:02:58.055Z,48691.19
2023-02-26T19:05:26.467Z,48681.41
2023-02-26T19:07:54.317Z,48693.16
2023-02-26T19:10:21.582Z,48689.22
2023-02-26T19:12:48.055Z,48687.28
2023-02-26T19:15:14.513Z,48695.09
2023-02-26T19:17:42.176Z,48677.47
2023-02-26T19:20:09.788Z,48683.34
2023-02-26T19:22:36.340Z,48691.19
2023-02-26T19:25:02.903Z,48683.34
2023-02-26T19:27:29.428Z,48689.22
2023-02-26T19:29:55.842Z,48677.47
2023-02-26T19:32:22.362Z,48683.34
2023-02-26T19:34:48.902Z,48663.75
2023-02-26T19:37:15.261Z,48702.94
2023-02-26T19:39:41.732Z,48687.28
2023-02-26T19:42:08.130Z,48693.16
2023-02-26T19:44:35.766Z,48691.19
2023-02-26T19:47:02.321Z,48679.44
2023-02-26T19:49:28.898Z,48695.09
2023-02-26T19:51:55.584Z,48679.44
2023-02-26T19:54:23.183Z,48642.22
2023-02-26T19:56:50.108Z,48679.44
2023-02-26T19:59:17.381Z,48679.44
2023-02-26T20:01:44.009Z,48675.50
2023-02-26T20:04:10.600Z,48693.16
2023-02-26T20:06:37.169Z,48704.91
2023-02-26T20:09:07.065Z,48673.56
2023-02-26T20:11:34.544Z,48691.19
2023-02-26T20:14:02.126Z,48683.34
2023-02-26T20:16:28.625Z,48675.50
2023-02-26T20:18:55.102Z,48675.50
2023-02-26T20:21:23.243Z,48681.41
2023-02-26T20:23:49.897Z,48691.19
2023-02-26T20:26:16.466Z,48699.03
2023-02-26T20:28:43.321Z,48669.63
2023-02-26T20:31:10.300Z,48675.50
2023-02-26T20:33:39.465Z,48679.44
2023-02-26T20:36:08.375Z,48675.50
2023-02-26T20:38:35.145Z,48693.16
2023-02-26T20:41:01.750Z,48699.03
2023-02-26T20:43:28.137Z,48665.72
2023-02-26T20:45:56.468Z,48659.84
2023-02-26T20:48:24.032Z,48671.59
2023-02-26T20:50:53.362Z,48683.34
2023-02-26T20:53:21.374Z,48657.88
2023-02-26T20:55:48.329Z,48675.50
2023-02-26T20:58:15.179Z,48687.28
2023-02-26T21:00:41.915Z,48669.63
2023-02-26T21:03:08.669Z,48683.34
2023-02-26T21:05:35.805Z,48675.50
2023-02-26T21:08:04.075Z,48675.50
2023-02-26T21:10:32.982Z,48655.94
2023-02-26T21:12:59.789Z,48687.28
2023-02-26T21:15:26.787Z,48683.34
2023-02-26T21:17:53.338Z,48687.28
2023-02-26T21:20:22.101Z,48695.09
2023-02-26T21:22:49.451Z,48695.09
2023-02-26T21:25:16.827Z,48669.63
2023-02-26T21:27:43.774Z,48685.31
2023-02-26T21:30:12.474Z,48675.50
2023-02-26T21:32:39.021Z,48655.94
2023-02-26T21:35:06.952Z,48689.22
2023-02-26T21:37:33.477Z,48667.69
2023-02-26T21:39:59.896Z,48679.44
2023-02-26T21:42:26.624Z,48671.59
2023-02-26T21:44:53.033Z,48691.19
2023-02-26T21:47:19.443Z,48679.44
2023-02-26T21:49:45.842Z,48632.41
2023-02-26T21:52:12.528Z,48655.94
2023-02-26T21:54:39.482Z,48683.34
2023-02-26T21:57:06.036Z,48659.84
2023-02-26T21:59:32.655Z,48673.56
2023-02-26T22:01:59.132Z,48661.81
2023-02-26T22:04:25.643Z,48679.44
2023-02-26T22:06:52.074Z,48671.59
2023-02-26T22:09:21.826Z,48671.59
2023-02-26T22:11:48.390Z,48702.94
2023-02-26T22:14:15.122Z,48663.75
2023-02-26T22:16:41.715Z,48687.28
2023-02-26T22:19:08.157Z,48679.44
2023-02-26T22:21:34.542Z,48679.44
2023-02-26T22:24:03.121Z,48671.59
2023-02-26T22:26:30.376Z,48659.84
2023-02-26T22:28:59.306Z,48695.09
2023-02-26T22:31:26.787Z,48667.69
2023-02-26T22:33:53.390Z,48671.59
2023-02-26T22:36:19.784Z,48687.28
2023-02-26T22:38:46.336Z,48675.50
2023-02-26T22:41:12.756Z,48675.50
2023-02-26T22:43:39.159Z,48679.44
2023-02-26T22:46:05.982Z,48663.75
2023-02-26T22:48:32.384Z,48665.72
2023-02-26T22:50:58.850Z,48671.59
2023-02-26T22:53:25.290Z,48667.69
2023-02-26T22:55:54.692Z,48667.69
2023-02-26T22:58:21.403Z,48679.44
2023-02-26T23:00:47.884Z,48683.34
2023-02-26T23:03:15.720Z,48679.44
2023-02-26T23:05:42.091Z,48667.69
2023-02-26T23:08:08.542Z,48679.44
2023-02-26T23:10:34.918Z,48673.56
2023-02-26T23:13:03.408Z,48659.84
2023-02-26T23:15:30.301Z,48673.56
2023-02-26T23:17:56.942Z,48663.75
2023-02-26T23:20:23.388Z,48695.09
2023-02-26T23:22:50.169Z,48673.56
2023-02-26T23:25:16.627Z,48687.28
2023-02-26T23:27:43.401Z,48667.69
2023-02-26T23:30:10.671Z,48685.31
2023-02-26T23:32:37.376Z,48683.34
2023-02-26T23:35:04.078Z,48679.44
2023-02-26T23:37:30.847Z,48675.50
2023-02-26T23:39:57.224Z,48683.34
2023-02-26T23:42:23.679Z,48663.75
2023-02-26T23:44:50.054Z,48671.59
2023-02-26T23:47:16.603Z,48695.09
2023-02-26T23:49:42.984Z,48667.69
2023-02-26T23:52:09.780Z,48671.59
2023-02-26T23:54:36.301Z,48659.84
2023-02-26T23:57:03.321Z,48702.94
2023-02-26T23:59:29.772Z,48663.75
